Time;durP1;ratioP1;P1;durP2;ratioP2;P2;SDS_P1;SDS_P2;PMS_P1;PMS_P2;Temp;Humidity;BMP_temperature;BMP_pressure;BME280_temperature;BME280_humidity;BME280_pressure;Samples;Min_cycle;Max_cycle;Signal;HPM_P1;HPM_P2
2023/01/07 00:00:48;;;;;;;20.45;9.77;;;3.60;99.90;;;;;;5031665;28;20037;-73
2023/01/07 00:03:15;;;;;;;21.02;11.88;;;3.70;99.90;;;;;;5035132;28;20032;-73
2023/01/07 00:05:42;;;;;;;17.15;8.65;;;3.90;99.90;;;;;;5039378;28;20372;-73
2023/01/07 00:08:08;;;;;;;14.23;8.02;;;3.80;99.90;;;;;;5036826;28;20924;-74
2023/01/07 00:10:34;;;;;;;19.58;9.00;;;3.70;99.90;;;;;;5038201;28;20100;-73
2023/01/07 00:13:00;;;;;;;15.65;7.22;;;3.80;99.90;;;;;;5034963;28;20037;-73
2023/01/07 00:15:26;;;;;;;11.05;5.85;;;3.70;99.90;;;;;;5039639;28;20045;-73
2023/01/07 00:17:52;;;;;;;15.55;7.47;;;3.70;99.90;;;;;;5039476;28;20033;-73
2023/01/07 00:20:17;;;;;;;12.85;6.72;;;3.60;99.90;;;;;;5039978;28;20033;-73
2023/01/07 00:22:43;;;;;;;15.88;7.63;;;3.60;99.90;;;;;;5041505;28;20029;-73
2023/01/07 00:25:09;;;;;;;16.77;7.57;;;3.70;99.90;;;;;;5044169;28;20032;-73
2023/01/07 00:27:34;;;;;;;16.30;7.93;;;3.60;99.90;;;;;;5040427;28;20548;-73
2023/01/07 00:30:00;;;;;;;21.05;9.18;;;3.60;99.90;;;;;;5038583;28;20036;-73
2023/01/07 00:32:49;;;;;;;21.63;9.68;;;3.60;99.90;;;;;;5038895;28;20127;-73
2023/01/07 00:35:21;;;;;;;21.70;11.23;;;3.70;99.90;;;;;;5036818;28;20099;-73
2023/01/07 00:37:51;;;;;;;18.42;8.77;;;3.80;99.90;;;;;;5042139;28;20025;-73
2023/01/07 00:40:17;;;;;;;24.65;11.68;;;3.70;99.90;;;;;;5050422;28;20029;-73
2023/01/07 00:45:42;;;;;;;28.30;13.48;;;3.90;99.90;;;;;;5019637;28;20486;-73
2023/01/07 00:48:08;;;;;;;24.67;12.93;;;3.80;99.90;;;;;;5042481;28;20528;-73
2023/01/07 00:50:35;;;;;;;25.20;13.43;;;3.70;99.90;;;;;;5044807;28;20033;-73
2023/01/07 00:53:01;;;;;;;28.65;13.27;;;3.70;99.90;;;;;;5035131;28;20458;-73
2023/01/07 00:55:27;;;;;;;22.60;11.07;;;3.50;99.90;;;;;;5039274;28;20030;-73
2023/01/07 00:57:53;;;;;;;23.38;11.63;;;3.30;99.90;;;;;;5037750;28;20029;-73
2023/01/07 01:00:21;;;;;;;19.13;11.13;;;3.10;99.90;;;;;;5036913;28;20029;-73
2023/01/07 01:02:47;;;;;;;27.60;13.15;;;3.00;99.90;;;;;;5039593;28;20117;-73
2023/01/07 01:05:13;;;;;;;21.00;10.73;;;3.00;99.90;;;;;;5038363;28;20037;-73
2023/01/07 01:07:40;;;;;;;16.42;9.32;;;3.00;99.90;;;;;;5040574;28;20040;-73
2023/01/07 01:10:08;;;;;;;17.30;8.35;;;3.10;99.90;;;;;;5041656;28;20479;-73
2023/01/07 01:12:34;;;;;;;18.73;9.85;;;3.10;99.90;;;;;;5042323;28;20101;-73
2023/01/07 01:15:04;;;;;;;20.45;10.00;;;3.00;99.90;;;;;;5040019;28;20183;-73
2023/01/07 01:17:29;;;;;;;23.20;10.10;;;3.00;99.90;;;;;;5041163;28;20029;-73
2023/01/07 01:19:55;;;;;;;23.38;12.60;;;3.10;99.90;;;;;;5042282;28;20586;-73
2023/01/07 01:22:21;;;;;;;24.60;12.18;;;3.30;99.90;;;;;;5035729;28;20044;-72
2023/01/07 01:24:48;;;;;;;25.10;11.30;;;3.40;99.90;;;;;;5042224;28;20029;-72
2023/01/07 01:27:13;;;;;;;20.95;10.43;;;3.30;99.90;;;;;;5038908;28;20029;-72
2023/01/07 01:29:39;;;;;;;25.98;13.50;;;3.20;99.90;;;;;;5046751;28;20605;-72
2023/01/07 01:32:05;;;;;;;22.92;12.50;;;3.30;99.90;;;;;;5044169;28;20048;-72
2023/01/07 01:34:30;;;;;;;21.45;11.02;;;3.20;99.90;;;;;;5042776;28;20380;-72
2023/01/07 01:36:56;;;;;;;23.50;11.90;;;3.10;99.90;;;;;;5040474;28;20029;-72
2023/01/07 01:39:22;;;;;;;24.63;12.57;;;3.00;99.90;;;;;;5044017;28;20040;-72
2023/01/07 01:41:47;;;;;;;20.60;11.88;;;3.20;99.90;;;;;;5041187;28;20032;-72
2023/01/07 01:44:32;;;;;;;24.15;11.43;;;3.10;99.90;;;;;;5040449;28;20033;-72
2023/01/07 01:46:58;;;;;;;24.60;12.52;;;3.00;99.90;;;;;;5049516;28;20479;-72
2023/01/07 01:49:40;;;;;;;26.35;14.10;;;3.10;99.90;;;;;;5045970;28;20036;-73
2023/01/07 01:52:11;;;;;;;28.63;13.75;;;3.20;99.90;;;;;;5042950;28;20901;-73
2023/01/07 01:54:38;;;;;;;28.48;14.27;;;3.20;99.90;;;;;;5047227;28;20033;-74
2023/01/07 01:57:06;;;;;;;33.90;15.38;;;3.20;99.90;;;;;;5041162;28;20022;-74
2023/01/07 01:59:35;;;;;;;28.95;14.63;;;3.20;99.90;;;;;;5040064;28;20100;-74
2023/01/07 02:02:01;;;;;;;29.23;14.50;;;3.20;99.90;;;;;;5044114;28;20375;-74
2023/01/07 02:04:29;;;;;;;41.72;17.58;;;3.10;99.90;;;;;;5036706;28;20029;-74
2023/01/07 02:07:06;;;;;;;37.13;20.52;;;3.10;99.90;;;;;;5043240;28;20037;-74
2023/01/07 02:09:31;;;;;;;33.05;17.67;;;3.20;99.90;;;;;;5045710;28;20076;-74
2023/01/07 02:12:06;;;;;;;36.97;17.80;;;3.10;99.90;;;;;;5040452;28;20173;-73
2023/01/07 02:15:04;;;;;;;36.63;19.55;;;3.10;99.90;;;;;;5043546;28;20044;-73
2023/01/07 02:17:41;;;;;;;30.02;15.23;;;3.10;99.90;;;;;;5043088;28;20060;-74
2023/01/07 02:20:31;;;;;;;28.65;14.38;;;3.00;99.90;;;;;;5040435;28;20029;-74
2023/01/07 02:23:18;;;;;;;33.00;16.23;;;3.00;99.90;;;;;;5036240;28;20036;-74
2023/01/07 02:26:08;;;;;;;35.38;17.40;;;3.10;99.90;;;;;;5040093;28;20033;-74
2023/01/07 02:28:40;;;;;;;35.45;16.42;;;3.10;99.90;;;;;;5040601;28;20475;-73
2023/01/07 02:31:43;;;;;;;34.25;15.35;;;3.00;99.90;;;;;;5037689;28;20036;-73
2023/01/07 02:34:08;;;;;;;27.88;14.68;;;2.90;99.90;;;;;;5036787;28;20033;-73
2023/01/07 02:36:39;;;;;;;36.60;16.63;;;2.90;99.90;;;;;;5042203;28;20032;-73
2023/01/07 02:39:14;;;;;;;28.20;12.95;;;2.90;99.90;;;;;;5042883;28;20039;-74
2023/01/07 02:41:45;;;;;;;26.67;12.23;;;2.80;99.90;;;;;;5040464;28;20026;-74
2023/01/07 02:44:41;;;;;;;26.88;13.63;;;2.70;99.90;;;;;;5043621;28;20025;-74
2023/01/07 02:47:19;;;;;;;29.92;15.45;;;2.70;99.90;;;;;;5038654;28;20036;-73
2023/01/07 02:49:48;;;;;;;24.85;13.82;;;2.80;99.90;;;;;;5037025;28;20414;-74
2023/01/07 02:52:23;;;;;;;25.42;12.48;;;2.70;99.90;;;;;;5041017;28;20090;-73
2023/01/07 02:54:58;;;;;;;25.38;13.80;;;2.70;99.90;;;;;;5043024;28;20032;-74
2023/01/07 02:57:53;;;;;;;27.23;13.82;;;2.80;99.90;;;;;;5045614;28;20052;-74
2023/01/07 03:00:43;;;;;;;31.80;15.27;;;2.80;99.90;;;;;;5048495;28;20056;-73
2023/01/07 03:03:46;;;;;;;30.45;13.75;;;3.00;99.90;;;;;;5035082;28;20851;-74
2023/01/07 03:06:23;;;;;;;22.75;12.55;;;2.90;99.90;;;;;;5036211;28;20064;-73
2023/01/07 03:09:05;;;;;;;31.17;15.63;;;2.80;99.90;;;;;;5038608;28;20041;-73
2023/01/07 03:12:04;;;;;;;28.80;15.55;;;2.90;99.90;;;;;;5050744;28;20056;-73
2023/01/07 03:15:05;;;;;;;24.70;13.05;;;2.90;99.90;;;;;;5039039;28;20041;-74
2023/01/07 03:17:39;;;;;;;25.08;12.60;;;3.00;99.90;;;;;;5028648;28;20049;-74
2023/01/07 03:20:05;;;;;;;26.70;13.48;;;3.00;99.90;;;;;;5035304;28;20124;-74
2023/01/07 03:22:33;;;;;;;27.52;12.98;;;3.10;99.90;;;;;;5042456;28;20041;-74
2023/01/07 03:25:02;;;;;;;25.73;13.70;;;3.00;99.90;;;;;;5044671;28;20403;-73
2023/01/07 03:27:32;;;;;;;25.77;14.25;;;3.00;99.90;;;;;;5037236;28;20033;-73
2023/01/07 03:29:59;;;;;;;22.27;11.55;;;3.00;99.90;;;;;;5045719;28;20037;-74
2023/01/07 03:32:37;;;;;;;29.20;13.10;;;3.00;99.90;;;;;;5041240;28;20053;-73
2023/01/07 03:35:04;;;;;;;26.55;13.30;;;2.90;99.90;;;;;;5042171;28;20029;-73
2023/01/07 03:37:31;;;;;;;24.33;12.73;;;2.90;99.90;;;;;;5041188;28;20536;-73
2023/01/07 03:39:57;;;;;;;23.23;12.57;;;2.90;99.90;;;;;;5042456;28;20108;-74
2023/01/07 03:42:39;;;;;;;27.55;13.65;;;2.60;99.90;;;;;;5042041;28;20036;-73
2023/01/07 03:45:26;;;;;;;22.42;10.45;;;2.60;99.90;;;;;;5043258;28;20021;-73
2023/01/07 03:47:54;;;;;;;19.23;10.50;;;2.60;99.90;;;;;;5038912;28;20028;-74
2023/01/07 03:50:21;;;;;;;17.33;10.85;;;2.60;99.90;;;;;;5033950;28;20071;-74
2023/01/07 03:52:47;;;;;;;17.48;8.70;;;2.60;99.90;;;;;;5042968;28;20041;-73
2023/01/07 03:55:13;;;;;;;16.13;8.50;;;2.50;99.90;;;;;;5038142;28;20040;-73
2023/01/07 03:57:39;;;;;;;16.48;7.75;;;2.50;99.90;;;;;;5040645;28;20029;-73
2023/01/07 04:00:08;;;;;;;15.48;7.53;;;2.50;99.90;;;;;;5039482;28;20113;-73
2023/01/07 04:02:34;;;;;;;17.20;9.40;;;2.50;99.90;;;;;;5046020;28;20031;-72
2023/01/07 04:04:59;;;;;;;15.68;8.23;;;2.40;99.90;;;;;;5037175;28;20372;-72
2023/01/07 04:07:25;;;;;;;19.08;8.32;;;2.40;99.90;;;;;;5033554;28;20067;-73
2023/01/07 04:09:50;;;;;;;14.68;8.23;;;2.40;99.90;;;;;;5066148;28;20033;-73
2023/01/07 04:12:17;;;;;;;12.65;7.70;;;2.40;99.90;;;;;;5030428;28;20028;-72
2023/01/07 04:14:43;;;;;;;13.95;7.30;;;2.50;99.90;;;;;;5036026;28;20033;-72
2023/01/07 04:17:08;;;;;;;15.63;8.00;;;2.50;99.90;;;;;;5032063;28;20058;-72
2023/01/07 04:19:37;;;;;;;19.67;9.38;;;2.60;99.90;;;;;;5031349;28;20051;-72
2023/01/07 04:22:04;;;;;;;21.13;11.98;;;2.60;99.90;;;;;;5028451;28;20049;-72
2023/01/07 04:24:29;;;;;;;21.20;9.93;;;2.50;99.90;;;;;;5034231;28;20466;-72
2023/01/07 04:26:55;;;;;;;15.63;8.50;;;2.50;99.90;;;;;;5031170;28;20029;-72
2023/01/07 04:29:21;;;;;;;14.48;8.90;;;2.20;99.90;;;;;;5027471;28;20094;-72
2023/01/07 04:31:48;;;;;;;15.85;7.82;;;2.10;99.90;;;;;;5035257;28;20115;-72
2023/01/07 04:34:13;;;;;;;16.67;9.65;;;2.00;99.90;;;;;;5037678;28;20100;-72
2023/01/07 04:36:39;;;;;;;20.52;10.13;;;1.80;99.90;;;;;;5036706;28;20604;-73
2023/01/07 04:39:04;;;;;;;13.85;7.60;;;1.70;99.90;;;;;;5027561;28;20494;-72
2023/01/07 04:41:30;;;;;;;13.70;7.90;;;1.60;99.90;;;;;;5035676;28;20028;-72
2023/01/07 04:43:56;;;;;;;14.30;7.25;;;1.80;99.90;;;;;;5037007;28;20036;-72
2023/01/07 04:46:21;;;;;;;13.45;6.82;;;1.70;99.90;;;;;;5038458;28;20035;-72
2023/01/07 04:48:47;;;;;;;13.43;6.53;;;1.70;99.90;;;;;;5035420;28;20029;-72
2023/01/07 04:51:13;;;;;;;16.10;8.43;;;1.70;99.90;;;;;;5032949;28;20472;-72
2023/01/07 04:53:38;;;;;;;17.40;8.07;;;1.80;99.90;;;;;;5029508;28;20029;-72
2023/01/07 04:56:05;;;;;;;14.00;6.85;;;1.80;99.90;;;;;;5040205;28;20040;-72
2023/01/07 04:58:31;;;;;;;18.95;8.68;;;1.70;99.90;;;;;;5037011;28;20530;-72
2023/01/07 05:01:02;;;;;;;15.27;7.07;;;1.60;99.90;;;;;;5033030;28;20033;-72
2023/01/07 05:03:28;;;;;;;13.75;6.85;;;1.60;99.90;;;;;;5036358;28;20036;-72
2023/01/07 05:05:54;;;;;;;17.85;8.60;;;1.60;99.90;;;;;;5041015;28;20108;-72
2023/01/07 05:08:20;;;;;;;17.08;10.20;;;1.80;99.90;;;;;;5043575;28;20581;-72
2023/01/07 05:10:49;;;;;;;17.10;8.82;;;1.80;99.90;;;;;;5032024;28;20064;-72
2023/01/07 05:13:20;;;;;;;14.43;7.63;;;1.80;99.90;;;;;;5033727;28;20515;-72
2023/01/07 05:15:46;;;;;;;14.52;7.82;;;1.70;99.90;;;;;;5035331;28;20025;-72
2023/01/07 05:18:13;;;;;;;18.05;9.60;;;1.60;99.90;;;;;;5039468;28;20132;-72
2023/01/07 05:20:38;;;;;;;15.88;8.55;;;1.60;99.90;;;;;;5037668;28;20110;-72
2023/01/07 05:23:05;;;;;;;18.75;9.18;;;1.70;99.90;;;;;;5042055;28;20029;-72
2023/01/07 05:25:32;;;;;;;19.00;10.07;;;1.70;99.90;;;;;;5033387;28;20060;-72
2023/01/07 05:27:58;;;;;;;16.55;8.50;;;1.80;99.90;;;;;;5042903;28;20024;-72
2023/01/07 05:30:24;;;;;;;16.88;9.02;;;1.90;99.90;;;;;;5036888;28;20083;-72
2023/01/07 05:32:50;;;;;;;17.58;8.57;;;1.90;99.90;;;;;;5036081;28;20209;-72
2023/01/07 05:35:16;;;;;;;15.43;8.65;;;1.80;99.90;;;;;;5038773;28;20079;-72
2023/01/07 05:37:41;;;;;;;16.83;8.98;;;1.60;99.90;;;;;;5030215;28;20067;-72
2023/01/07 05:40:08;;;;;;;20.75;10.63;;;1.60;99.90;;;;;;5043942;28;20060;-72
2023/01/07 05:42:33;;;;;;;18.63;10.77;;;1.60;99.90;;;;;;5037561;28;20098;-72
2023/01/07 05:44:59;;;;;;;17.48;11.20;;;1.60;99.90;;;;;;5042903;28;20103;-72
2023/01/07 05:47:25;;;;;;;24.35;11.10;;;1.70;99.90;;;;;;5036475;28;20052;-72
2023/01/07 05:49:50;;;;;;;15.85;9.27;;;1.70;99.90;;;;;;5035222;28;20449;-72
2023/01/07 05:52:16;;;;;;;18.55;10.15;;;1.80;99.90;;;;;;5035245;28;20029;-72
2023/01/07 05:54:42;;;;;;;20.50;9.65;;;1.70;99.90;;;;;;5037035;28;20116;-72
2023/01/07 05:57:07;;;;;;;19.83;10.27;;;1.80;99.90;;;;;;5040382;28;20021;-72
2023/01/07 05:59:33;;;;;;;18.33;9.13;;;1.90;99.90;;;;;;5032159;28;20120;-72
2023/01/07 06:02:00;;;;;;;16.88;8.98;;;2.00;99.90;;;;;;5039214;28;20030;-72
2023/01/07 06:04:26;;;;;;;18.30;9.60;;;1.90;99.90;;;;;;5036210;28;20500;-72
2023/01/07 06:06:52;;;;;;;18.83;9.80;;;1.90;99.90;;;;;;5036760;28;20030;-72
2023/01/07 06:09:18;;;;;;;19.67;9.23;;;1.90;99.90;;;;;;5037314;28;20029;-73
2023/01/07 06:11:44;;;;;;;17.25;9.00;;;1.90;99.90;;;;;;5035361;28;20414;-72
2023/01/07 06:14:10;;;;;;;18.73;9.30;;;1.90;99.90;;;;;;5036378;28;20126;-72
2023/01/07 06:16:35;;;;;;;15.85;8.85;;;1.90;99.90;;;;;;5036523;28;20438;-72
2023/01/07 06:19:01;;;;;;;15.55;8.38;;;2.00;99.90;;;;;;5033011;28;20030;-72
2023/01/07 06:21:27;;;;;;;15.82;8.65;;;2.00;99.90;;;;;;5039813;28;20638;-72
2023/01/07 06:23:52;;;;;;;17.88;8.63;;;2.00;99.90;;;;;;5036010;28;20029;-72
2023/01/07 06:26:18;;;;;;;13.57;7.85;;;2.10;99.90;;;;;;5031016;28;20722;-73
2023/01/07 06:28:44;;;;;;;14.93;7.30;;;1.90;99.90;;;;;;5035973;28;20032;-72
2023/01/07 06:31:10;;;;;;;18.00;8.65;;;1.90;99.90;;;;;;5033170;28;20535;-72
2023/01/07 06:33:36;;;;;;;13.90;7.88;;;2.00;99.90;;;;;;5037966;28;20033;-72
2023/01/07 06:36:03;;;;;;;14.60;7.47;;;2.00;99.90;;;;;;5038476;28;20021;-72
2023/01/07 06:38:29;;;;;;;15.20;8.38;;;2.00;99.90;;;;;;5033314;28;20145;-72
2023/01/07 06:40:57;;;;;;;19.92;9.80;;;2.00;99.90;;;;;;5041686;28;20554;-72
2023/01/07 06:43:23;;;;;;;19.98;10.07;;;2.00;99.90;;;;;;5032903;28;20333;-72
2023/01/07 06:45:49;;;;;;;17.42;9.23;;;2.00;99.90;;;;;;5034232;28;20029;-73
2023/01/07 06:48:15;;;;;;;13.73;7.68;;;1.90;99.90;;;;;;5039174;28;20029;-73
2023/01/07 06:50:41;;;;;;;21.20;9.75;;;1.80;99.90;;;;;;5037974;28;20105;-72
2023/01/07 06:53:06;;;;;;;21.42;10.95;;;1.80;99.90;;;;;;5048346;28;20037;-72
2023/01/07 06:55:32;;;;;;;16.30;9.43;;;2.00;99.90;;;;;;5036324;28;20025;-72
2023/01/07 06:57:57;;;;;;;18.95;9.80;;;2.00;99.90;;;;;;5040647;28;20077;-72
2023/01/07 07:00:23;;;;;;;15.10;8.55;;;2.00;99.90;;;;;;5035155;28;20029;-72
2023/01/07 07:02:49;;;;;;;19.40;9.90;;;2.00;99.90;;;;;;5038964;28;20029;-72
2023/01/07 07:05:14;;;;;;;17.75;10.05;;;1.90;99.90;;;;;;5036470;28;20071;-73
2023/01/07 07:07:40;;;;;;;19.05;9.52;;;1.80;99.90;;;;;;5036305;28;20030;-72
2023/01/07 07:10:07;;;;;;;21.90;10.93;;;1.90;99.90;;;;;;5035322;28;20029;-72
2023/01/07 07:12:34;;;;;;;17.10;9.23;;;1.90;99.90;;;;;;5036617;28;20033;-72
2023/01/07 07:14:59;;;;;;;20.67;9.90;;;2.00;99.90;;;;;;5032729;28;20144;-72
2023/01/07 07:17:25;;;;;;;19.50;9.40;;;2.00;99.90;;;;;;5035156;28;20153;-72
2023/01/07 07:19:51;;;;;;;21.60;10.13;;;2.10;99.90;;;;;;5035714;28;20029;-72
2023/01/07 07:22:16;;;;;;;15.80;8.18;;;2.20;99.90;;;;;;5035528;28;20037;-72
2023/01/07 07:24:42;;;;;;;16.33;8.48;;;2.10;99.90;;;;;;5032474;28;20379;-72
2023/01/07 07:27:08;;;;;;;18.40;9.30;;;2.10;99.90;;;;;;5037315;28;20052;-72
2023/01/07 07:29:33;;;;;;;16.75;9.05;;;2.10;99.90;;;;;;5042848;28;20036;-72
2023/01/07 07:31:59;;;;;;;14.07;6.45;;;2.10;99.90;;;;;;5037537;28;20033;-73
2023/01/07 07:34:25;;;;;;;13.40;6.43;;;2.10;99.90;;;;;;5038913;28;20045;-72
2023/01/07 07:36:50;;;;;;;16.05;7.47;;;2.20;99.90;;;;;;5039641;28;20047;-73
2023/01/07 07:39:16;;;;;;;16.30;8.27;;;2.10;99.90;;;;;;5032526;28;20148;-72
2023/01/07 07:41:41;;;;;;;17.73;7.82;;;2.10;99.90;;;;;;5032759;28;20060;-73
2023/01/07 07:44:07;;;;;;;15.55;7.82;;;2.00;99.90;;;;;;5035039;28;20509;-72
2023/01/07 07:46:33;;;;;;;15.57;9.15;;;2.00;99.90;;;;;;5036089;28;20115;-73
2023/01/07 07:48:58;;;;;;;19.85;10.10;;;2.00;99.90;;;;;;5032490;28;20040;-73
2023/01/07 07:51:24;;;;;;;17.20;9.27;;;2.00;99.90;;;;;;5034740;28;20044;-72
2023/01/07 07:53:50;;;;;;;18.90;10.20;;;2.10;99.90;;;;;;5063689;28;20040;-72
2023/01/07 07:56:15;;;;;;;20.75;11.23;;;1.80;99.90;;;;;;5029385;28;20033;-72
2023/01/07 07:58:42;;;;;;;19.70;10.85;;;1.70;99.90;;;;;;5035550;28;20583;-72
2023/01/07 08:01:08;;;;;;;19.20;10.20;;;1.80;99.90;;;;;;5029437;28;20044;-72
2023/01/07 08:03:35;;;;;;;20.75;11.63;;;1.80;99.90;;;;;;5035270;28;20083;-72
2023/01/07 08:06:02;;;;;;;20.13;10.40;;;1.90;99.90;;;;;;5028880;28;20029;-72
2023/01/07 08:08:28;;;;;;;22.33;11.68;;;1.90;99.90;;;;;;5034398;28;20033;-72
2023/01/07 08:10:54;;;;;;;18.08;10.00;;;1.90;99.90;;;;;;5030659;28;20048;-72
2023/01/07 08:13:20;;;;;;;22.42;11.25;;;1.90;99.90;;;;;;5033766;28;20041;-72
2023/01/07 08:15:46;;;;;;;21.92;11.05;;;2.00;99.90;;;;;;5035134;28;20033;-71
2023/01/07 08:18:12;;;;;;;22.02;11.57;;;1.90;99.90;;;;;;5029570;28;20037;-72
2023/01/07 08:20:38;;;;;;;29.48;15.20;;;1.80;99.90;;;;;;5036573;28;20448;-73
2023/01/07 08:23:05;;;;;;;24.77;13.10;;;1.90;99.90;;;;;;5040014;28;20039;-72
2023/01/07 08:25:32;;;;;;;25.98;13.98;;;1.90;99.90;;;;;;5037892;28;20116;-72
2023/01/07 08:27:59;;;;;;;26.92;14.48;;;1.90;99.90;;;;;;5038143;28;20029;-73
2023/01/07 08:30:25;;;;;;;25.00;13.75;;;1.90;99.90;;;;;;5034392;28;20094;-73
2023/01/07 08:32:51;;;;;;;23.85;14.02;;;2.00;99.90;;;;;;5037656;28;20092;-73
2023/01/07 08:35:17;;;;;;;24.35;12.90;;;2.10;99.90;;;;;;5037833;28;20549;-73
2023/01/07 08:37:43;;;;;;;27.98;14.25;;;2.20;99.90;;;;;;5037548;28;20035;-72
2023/01/07 08:40:09;;;;;;;23.80;13.70;;;2.20;99.90;;;;;;5036944;28;20059;-72
2023/01/07 08:42:35;;;;;;;24.77;14.05;;;2.30;99.90;;;;;;5039907;28;20086;-73
2023/01/07 08:45:01;;;;;;;24.27;14.10;;;2.20;99.90;;;;;;5037007;28;20037;-73
2023/01/07 08:47:27;;;;;;;31.13;15.55;;;2.10;99.90;;;;;;5034729;28;20135;-73
2023/01/07 08:49:53;;;;;;;29.83;16.08;;;2.20;99.90;;;;;;5036356;28;20128;-73
2023/01/07 08:52:20;;;;;;;25.30;14.45;;;2.30;99.90;;;;;;5034656;28;20035;-73
2023/01/07 08:54:47;;;;;;;25.95;15.18;;;2.50;99.90;;;;;;5038275;28;20037;-74
2023/01/07 08:57:13;;;;;;;23.27;13.77;;;2.40;99.90;;;;;;5034515;28;20026;-75
2023/01/07 08:59:39;;;;;;;29.23;15.75;;;2.40;99.90;;;;;;5035702;28;20040;-74
2023/01/07 09:02:13;;;;;;;25.45;12.73;;;2.70;99.90;;;;;;5035815;28;20037;-74
2023/01/07 09:04:39;;;;;;;28.93;18.67;;;2.50;99.90;;;;;;5034836;28;20037;-74
2023/01/07 09:07:04;;;;;;;29.42;15.27;;;2.40;99.90;;;;;;5038866;28;20024;-74
2023/01/07 09:09:30;;;;;;;25.27;13.77;;;2.40;99.90;;;;;;5038008;28;20039;-73
2023/01/07 09:11:56;;;;;;;26.15;15.13;;;2.40;99.90;;;;;;5035251;28;20124;-72
2023/01/07 09:14:21;;;;;;;26.05;15.30;;;2.50;99.90;;;;;;5037517;28;20122;-73
2023/01/07 09:16:47;;;;;;;29.65;17.40;;;2.40;99.90;;;;;;5038749;28;20037;-73
2023/01/07 09:19:12;;;;;;;32.40;16.48;;;2.40;99.90;;;;;;5036509;28;20036;-72
2023/01/07 09:21:38;;;;;;;27.33;16.38;;;2.40;99.90;;;;;;5040205;28;20049;-72
2023/01/07 09:24:04;;;;;;;24.48;14.65;;;2.40;99.90;;;;;;5038668;28;20080;-73
2023/01/07 09:26:29;;;;;;;27.65;15.65;;;2.40;99.90;;;;;;5034386;28;20029;-72
2023/01/07 09:28:55;;;;;;;30.58;15.90;;;2.50;99.90;;;;;;5036029;28;20897;-73
2023/01/07 09:31:21;;;;;;;26.75;15.43;;;2.40;99.90;;;;;;5037138;28;20124;-72
2023/01/07 09:33:47;;;;;;;27.58;13.02;;;2.40;99.90;;;;;;5035853;28;20042;-73
2023/01/07 09:36:13;;;;;;;27.52;14.07;;;2.50;99.90;;;;;;5039751;28;20407;-73
2023/01/07 09:38:38;;;;;;;30.30;16.95;;;2.70;99.90;;;;;;5034602;28;20039;-75
2023/01/07 09:41:18;;;;;;;25.65;14.75;;;2.90;99.90;;;;;;5035930;28;20020;-75
2023/01/07 09:43:49;;;;;;;24.15;14.00;;;2.90;99.90;;;;;;5037368;28;20118;-74
2023/01/07 09:46:17;;;;;;;30.20;15.77;;;3.00;99.90;;;;;;5026454;28;20116;-75
2023/01/07 09:48:46;;;;;;;28.25;15.23;;;2.90;99.90;;;;;;5035531;28;20084;-74
2023/01/07 09:51:22;;;;;;;33.47;18.08;;;2.80;99.90;;;;;;5038216;28;20617;-71
2023/01/07 09:53:54;;;;;;;42.00;24.67;;;2.80;99.90;;;;;;5044111;28;20044;-71
2023/01/07 09:56:28;;;;;;;34.92;20.45;;;2.90;99.90;;;;;;5045159;28;20059;-71
2023/01/07 09:58:55;;;;;;;34.47;19.73;;;2.80;99.90;;;;;;5044746;28;20033;-71
2023/01/07 10:01:33;;;;;;;27.40;16.15;;;2.80;99.90;;;;;;5038772;28;20037;-73
2023/01/07 10:03:58;;;;;;;37.10;25.00;;;2.80;99.90;;;;;;5046568;28;20325;-72
2023/01/07 10:06:37;;;;;;;31.95;19.98;;;2.80;99.90;;;;;;5050008;28;20028;-70
2023/01/07 10:09:12;;;;;;;26.63;14.52;;;2.70;99.90;;;;;;5050657;28;20029;-72
2023/01/07 10:11:37;;;;;;;25.98;13.70;;;2.60;99.90;;;;;;5043501;28;20037;-73
2023/01/07 10:14:09;;;;;;;29.88;16.05;;;2.50;99.90;;;;;;5042439;28;20111;-74
2023/01/07 10:16:42;;;;;;;28.85;15.35;;;2.40;99.90;;;;;;5058460;28;20024;-72
2023/01/07 10:19:19;;;;;;;24.27;14.45;;;2.60;99.90;;;;;;5050863;28;20033;-71
2023/01/07 10:21:55;;;;;;;24.08;14.00;;;2.70;99.90;;;;;;5044902;28;20052;-72
2023/01/07 10:24:32;;;;;;;31.63;15.68;;;2.90;99.90;;;;;;5048873;28;20028;-71
2023/01/07 10:27:02;;;;;;;26.30;13.15;;;3.00;99.90;;;;;;5048763;28;20028;-72
2023/01/07 10:29:35;;;;;;;24.98;13.32;;;3.10;99.90;;;;;;5050372;28;20079;-71
2023/01/07 10:32:14;;;;;;;28.35;14.80;;;3.00;99.90;;;;;;5051045;28;20033;-71
2023/01/07 10:34:48;;;;;;;26.33;14.15;;;2.90;99.90;;;;;;5042393;28;20509;-71
2023/01/07 10:37:26;;;;;;;25.23;13.32;;;2.80;99.90;;;;;;5054897;28;20104;-70
2023/01/07 10:40:12;;;;;;;25.30;14.73;;;2.80;99.90;;;;;;5053235;28;20037;-71
2023/01/07 10:43:21;;;;;;;29.75;14.20;;;2.80;99.90;;;;;;5049155;28;21028;-72
2023/01/07 10:46:05;;;;;;;27.35;13.88;;;2.90;99.90;;;;;;5041476;28;20554;-71
2023/01/07 10:48:50;;;;;;;22.58;13.63;;;3.00;99.90;;;;;;5050340;28;20459;-71
2023/01/07 10:51:16;;;;;;;;;;;3.20;99.90;;;;;;5048373;28;20029;-71
2023/01/07 10:54:12;;;;;;;30.17;14.75;;;3.20;99.90;;;;;;5047330;28;19917;-73
2023/01/07 10:56:46;;;;;;;29.65;15.25;;;3.30;99.90;;;;;;5049495;28;20040;-73
2023/01/07 10:59:20;;;;;;;27.05;14.68;;;3.40;99.90;;;;;;5049265;28;20036;-72
2023/01/07 11:01:55;;;;;;;30.50;14.43;;;3.50;99.90;;;;;;5041664;28;20028;-72
2023/01/07 11:04:21;;;;;;;28.48;15.90;;;3.60;99.90;;;;;;5047873;28;20069;-73
2023/01/07 11:06:53;;;;;;;25.65;14.40;;;3.70;99.90;;;;;;5047298;28;20114;-73
2023/01/07 11:09:28;;;;;;;36.22;16.20;;;3.80;99.90;;;;;;5048413;28;20029;-72
2023/01/07 11:11:56;;;;;;;31.02;15.23;;;3.90;99.90;;;;;;5047017;28;20029;-71
2023/01/07 11:14:27;;;;;;;28.63;14.48;;;3.90;99.90;;;;;;5047597;28;20632;-72
2023/01/07 11:17:06;;;;;;;29.42;15.48;;;3.90;99.90;;;;;;5048153;28;20053;-71
2023/01/07 11:19:51;;;;;;;29.45;15.25;;;4.10;99.90;;;;;;5044969;28;20734;-73
2023/01/07 11:22:25;;;;;;;28.05;14.05;;;4.20;99.90;;;;;;5042326;28;20415;-71
2023/01/07 11:24:52;;;;;;;25.75;14.85;;;4.20;99.90;;;;;;5032835;28;20522;-72
2023/01/07 11:27:20;;;;;;;24.60;14.15;;;4.30;99.90;;;;;;5042826;28;20116;-73
2023/01/07 11:30:02;;;;;;;25.00;13.98;;;4.30;99.90;;;;;;5037342;28;20033;-71
2023/01/07 11:32:34;;;;;;;23.88;13.35;;;4.50;99.90;;;;;;5034720;28;20056;-72
2023/01/07 11:35:17;;;;;;;29.30;14.48;;;4.50;99.90;;;;;;5037304;28;20069;-70
2023/01/07 11:37:46;;;;;;;26.25;13.85;;;4.80;99.90;;;;;;5037923;28;20450;-71
2023/01/07 11:40:12;;;;;;;23.55;13.15;;;4.90;99.90;;;;;;5037166;28;20041;-72
2023/01/07 11:42:55;;;;;;;30.17;14.65;;;5.00;99.90;;;;;;5037497;28;20102;-71
2023/01/07 11:45:46;;;;;;;27.88;14.23;;;4.90;99.90;;;;;;5041520;28;20029;-70
2023/01/07 11:48:28;;;;;;;23.63;13.77;;;4.90;99.90;;;;;;5046177;28;20116;-70
2023/01/07 11:51:05;;;;;;;28.02;14.68;;;4.80;99.90;;;;;;5040381;28;20422;-70
2023/01/07 11:53:37;;;;;;;29.38;15.48;;;4.90;99.90;;;;;;5041612;28;20066;-72
2023/01/07 11:56:13;;;;;;;25.88;13.77;;;5.00;99.90;;;;;;5047831;28;20033;-71
2023/01/07 11:58:44;;;;;;;26.08;13.02;;;5.00;99.90;;;;;;5045975;28;20029;-72
2023/01/07 12:01:11;;;;;;;24.98;13.32;;;5.00;99.90;;;;;;5045881;28;20036;-72
2023/01/07 12:03:43;;;;;;;24.73;13.25;;;5.20;99.90;;;;;;5046974;28;20021;-72
2023/01/07 12:06:15;;;;;;;24.90;12.90;;;5.20;99.90;;;;;;5043944;28;20033;-73
2023/01/07 12:08:48;;;;;;;22.63;12.98;;;5.20;99.90;;;;;;5046598;28;20032;-71
2023/01/07 12:11:14;;;;;;;23.55;13.60;;;5.30;99.90;;;;;;5047730;28;20108;-71
2023/01/07 12:13:47;;;;;;;30.00;16.55;;;5.50;99.90;;;;;;5048295;28;20132;-73
2023/01/07 12:16:13;;;;;;;27.02;16.60;;;5.60;99.90;;;;;;5040598;28;20029;-72
2023/01/07 12:18:44;;;;;;;27.70;16.45;;;5.60;99.90;;;;;;5046347;28;20116;-71
2023/01/07 12:21:19;;;;;;;24.67;14.95;;;5.60;99.90;;;;;;5045785;28;20053;-69
2023/01/07 12:24:06;;;;;;;25.38;15.43;;;5.40;99.90;;;;;;5047167;28;20360;-72
2023/01/07 12:26:41;;;;;;;24.83;15.80;;;5.40;99.90;;;;;;5043139;28;20100;-72
2023/01/07 12:29:26;;;;;;;28.90;15.00;;;5.30;99.90;;;;;;5087989;28;20169;-72
2023/01/07 12:32:03;;;;;;;27.58;14.80;;;5.20;99.90;;;;;;5066481;28;20064;-72
2023/01/07 12:34:54;;;;;;;26.90;13.77;;;5.10;99.90;;;;;;5035771;28;20036;-74
2023/01/07 12:37:32;;;;;;;25.40;14.15;;;5.10;99.90;;;;;;5044933;28;20090;-74
2023/01/07 12:40:22;;;;;;;24.20;13.55;;;5.10;99.90;;;;;;5044322;28;20032;-75
2023/01/07 12:43:00;;;;;;;31.27;16.35;;;5.20;99.90;;;;;;5042470;28;20020;-73
2023/01/07 12:45:41;;;;;;;24.38;12.88;;;5.10;99.90;;;;;;5037040;28;20215;-73
2023/01/07 12:48:16;;;;;;;24.00;14.68;;;5.10;99.90;;;;;;5044350;28;20650;-73
2023/01/07 12:50:46;;;;;;;22.80;12.75;;;5.10;99.90;;;;;;5045687;28;20422;-73
2023/01/07 12:53:36;;;;;;;25.40;15.75;;;5.10;99.90;;;;;;5044668;28;20045;-73
2023/01/07 12:57:00;;;;;;;27.83;15.38;;;5.10;99.90;;;;;;5031300;28;20045;-73
2023/01/07 12:59:47;;;;;;;25.85;14.90;;;5.20;99.90;;;;;;4971671;28;20158;-72